createdAt,value
2019-05-07T00:00:12.650Z,7.50
2019-05-07T00:03:32.972Z,7.48
2019-05-07T00:04:33.286Z,7.40
2019-05-07T00:05:33.290Z,7.37
2019-05-07T00:06:32.748Z,7.43
2019-05-07T00:07:32.769Z,7.31
2019-05-07T00:08:32.726Z,7.31
2019-05-07T00:09:32.714Z,7.28
2019-05-07T00:10:33.260Z,7.25
2019-05-07T00:11:33.161Z,7.25
2019-05-07T00:12:32.683Z,7.27
2019-05-07T00:13:33.291Z,7.31
2019-05-07T00:14:34.621Z,7.31
2019-05-07T00:15:32.946Z,7.25
2019-05-07T00:16:32.637Z,7.28
2019-05-07T00:17:32.627Z,7.28
2019-05-07T00:18:32.616Z,7.28
2019-05-07T00:19:32.631Z,7.24
2019-05-07T00:20:32.901Z,7.32
2019-05-07T00:21:32.730Z,7.39
2019-05-07T00:22:32.732Z,7.32
2019-05-07T00:23:32.733Z,7.37
2019-05-07T00:24:33.240Z,7.37
2019-05-07T00:25:33.000Z,7.45
2019-05-07T00:26:32.545Z,7.35
2019-05-07T00:27:32.513Z,7.43
2019-05-07T00:28:32.660Z,7.46
2019-05-07T00:29:32.489Z,7.43
2019-05-07T00:30:33.194Z,7.42
2019-05-07T00:31:32.661Z,7.42
2019-05-07T00:32:32.842Z,7.40
2019-05-07T00:33:32.499Z,7.43
2019-05-07T00:34:32.874Z,7.35
2019-05-07T00:35:32.522Z,7.45
2019-05-07T00:36:32.525Z,7.48
2019-05-07T00:37:32.399Z,7.48
2019-05-07T00:38:32.391Z,7.45
2019-05-07T00:39:32.846Z,7.43
2019-05-07T00:40:32.367Z,7.50
2019-05-07T00:41:32.380Z,7.48
2019-05-07T00:42:32.826Z,7.43
2019-05-07T00:43:32.367Z,7.45
2019-05-07T00:44:32.843Z,7.43
2019-05-07T00:45:32.661Z,7.46
2019-05-07T00:46:32.304Z,7.42
2019-05-07T00:47:33.033Z,7.40
2019-05-07T00:48:32.983Z,7.43
2019-05-07T00:49:33.076Z,7.42
2019-05-07T00:50:33.154Z,7.39
2019-05-07T00:51:33.349Z,7.42
2019-05-07T00:52:33.549Z,7.45
2019-05-07T00:53:32.915Z,7.40
2019-05-07T00:54:32.572Z,7.40
2019-05-07T00:55:32.687Z,7.40
2019-05-07T00:56:33.212Z,7.40
2019-05-07T00:57:32.424Z,7.45
2019-05-07T00:58:32.206Z,7.40
2019-05-07T00:59:32.330Z,7.35
2019-05-07T01:00:33.212Z,7.37
2019-05-07T01:01:32.409Z,7.43
2019-05-07T01:02:32.499Z,7.40
2019-05-07T01:03:32.855Z,7.40
2019-05-07T01:04:33.143Z,7.43
2019-05-07T01:05:32.687Z,7.45
2019-05-07T01:06:33.088Z,7.37
2019-05-07T01:07:32.557Z,7.43
2019-05-07T01:08:32.234Z,7.31
2019-05-07T01:09:32.448Z,7.35
2019-05-07T01:10:33.005Z,7.35
2019-05-07T01:11:33.493Z,7.34
2019-05-07T01:12:32.906Z,7.37
2019-05-07T01:13:32.371Z,7.32
2019-05-07T01:14:32.625Z,7.27
2019-05-07T01:15:34.485Z,7.25
2019-05-07T01:16:33.051Z,7.31
2019-05-07T01:17:33.505Z,7.27
2019-05-07T01:18:32.455Z,7.30
2019-05-07T01:19:32.850Z,7.35
2019-05-07T01:20:32.937Z,7.28
2019-05-07T01:21:32.637Z,7.32
2019-05-07T01:22:32.993Z,7.34
2019-05-07T01:23:32.279Z,7.30
2019-05-07T01:24:32.306Z,7.25
2019-05-07T01:25:32.896Z,7.30
2019-05-07T01:26:32.954Z,7.24
2019-05-07T01:27:32.252Z,7.30
2019-05-07T01:28:32.925Z,7.31
2019-05-07T01:29:32.857Z,7.28
2019-05-07T01:30:32.404Z,7.30
2019-05-07T01:31:32.884Z,7.25
2019-05-07T01:32:32.949Z,7.28
2019-05-07T01:33:33.208Z,7.24
2019-05-07T01:34:32.353Z,7.17
2019-05-07T01:35:32.692Z,7.23
2019-05-07T01:36:32.021Z,7.20
2019-05-07T01:37:32.568Z,7.20
2019-05-07T01:38:33.159Z,7.25
2019-05-07T01:39:32.630Z,7.25
2019-05-07T01:40:32.385Z,7.15
2019-05-07T01:41:32.685Z,7.15
2019-05-07T01:42:32.723Z,7.13
2019-05-07T01:43:32.189Z,7.24
2019-05-07T01:44:32.526Z,7.12
2019-05-07T01:45:44.835Z,7.20
2019-05-07T01:46:32.647Z,7.09
2019-05-07T01:47:33.175Z,7.09
2019-05-07T01:48:32.366Z,7.21
2019-05-07T01:49:33.045Z,7.13
2019-05-07T01:50:32.273Z,7.13
2019-05-07T01:51:32.699Z,7.12
2019-05-07T01:52:33.128Z,7.12
2019-05-07T01:53:32.303Z,7.10
2019-05-07T01:54:33.217Z,7.10
2019-05-07T01:55:31.987Z,7.10
2019-05-07T01:56:33.127Z,7.12
2019-05-07T01:57:32.628Z,6.98
2019-05-07T01:58:33.162Z,7.05
2019-05-07T01:59:32.161Z,6.98
2019-05-07T02:00:32.647Z,6.91
2019-05-07T02:01:33.120Z,6.97
2019-05-07T02:02:32.029Z,6.97
2019-05-07T02:03:32.820Z,6.99
2019-05-07T02:04:32.674Z,6.91
2019-05-07T02:05:32.673Z,6.97
2019-05-07T02:06:32.759Z,6.88
2019-05-07T02:07:33.272Z,6.74
2019-05-07T02:08:32.865Z,6.84
2019-05-07T02:09:31.387Z,6.89
2019-05-07T02:10:32.119Z,6.73
2019-05-07T02:11:32.678Z,6.88
2019-05-07T02:12:31.909Z,6.81
2019-05-07T02:13:33.720Z,6.81
2019-05-07T02:14:33.059Z,6.77
2019-05-07T02:15:32.322Z,6.71
2019-05-07T02:16:32.667Z,6.81
2019-05-07T02:17:32.166Z,6.77
2019-05-07T02:18:32.634Z,6.79
2019-05-07T02:19:32.898Z,6.70
2019-05-07T02:20:32.170Z,6.70
2019-05-07T02:21:32.936Z,6.71
2019-05-07T02:22:32.039Z,6.70
2019-05-07T02:23:33.050Z,6.71
2019-05-07T02:24:31.196Z,6.62
2019-05-07T02:25:32.683Z,6.70
2019-05-07T02:26:32.187Z,6.70
2019-05-07T02:27:32.823Z,6.69
2019-05-07T02:28:32.998Z,6.70
2019-05-07T02:29:32.395Z,6.61
2019-05-07T02:30:34.590Z,6.59
2019-05-07T02:31:33.587Z,6.71
2019-05-07T02:32:33.600Z,6.66
2019-05-07T02:33:31.097Z,6.59
2019-05-07T02:34:33.885Z,6.62
2019-05-07T02:35:33.366Z,6.67
2019-05-07T02:36:33.683Z,6.69
2019-05-07T02:37:41.834Z,6.62
2019-05-07T02:38:33.982Z,6.64
2019-05-07T02:39:33.310Z,6.64
2019-05-07T02:40:33.827Z,6.69
2019-05-07T02:41:33.008Z,6.61
2019-05-07T02:42:33.550Z,6.56
2019-05-07T02:43:33.799Z,6.51
2019-05-07T02:44:32.447Z,6.54
2019-05-07T02:45:33.206Z,6.54
2019-05-07T02:46:35.167Z,6.56
2019-05-07T02:47:33.044Z,6.46
2019-05-07T02:48:33.334Z,6.46
2019-05-07T02:49:32.740Z,6.49
2019-05-07T02:50:33.019Z,6.51
2019-05-07T02:51:33.372Z,6.43
2019-05-07T02:52:32.455Z,6.46
2019-05-07T02:53:33.478Z,6.44
2019-05-07T02:54:32.790Z,6.49
2019-05-07T02:55:33.522Z,6.48
2019-05-07T02:56:33.253Z,6.46
2019-05-07T02:57:34.128Z,6.48
2019-05-07T02:58:33.088Z,6.38
2019-05-07T02:59:33.523Z,6.46
2019-05-07T03:00:33.413Z,6.38
2019-05-07T03:01:33.301Z,6.38
2019-05-07T03:02:33.237Z,6.46
2019-05-07T03:03:33.213Z,6.38
2019-05-07T03:04:33.334Z,6.46
2019-05-07T03:05:30.738Z,6.41
2019-05-07T03:06:33.622Z,6.44
2019-05-07T03:07:33.389Z,6.44
2019-05-07T03:08:33.053Z,6.28
2019-05-07T03:09:32.904Z,6.31
2019-05-07T03:10:33.585Z,6.33
2019-05-07T03:11:33.654Z,6.36
2019-05-07T03:12:33.271Z,6.25
2019-05-07T03:13:33.384Z,6.28
2019-05-07T03:14:32.424Z,6.28
2019-05-07T03:15:33.327Z,6.27
2019-05-07T03:16:39.582Z,6.28
2019-05-07T03:17:33.293Z,6.25
2019-05-07T03:18:33.444Z,6.28
2019-05-07T03:19:33.071Z,6.22
2019-05-07T03:20:33.268Z,6.28
2019-05-07T03:21:32.893Z,6.27
2019-05-07T03:22:33.490Z,6.27
2019-05-07T03:23:30.544Z,6.28
2019-05-07T03:24:33.988Z,6.22
2019-05-07T03:25:33.547Z,6.33
2019-05-07T03:26:33.932Z,6.28
2019-05-07T03:27:33.749Z,6.36
2019-05-07T03:28:33.448Z,6.28
2019-05-07T03:29:33.348Z,6.27
2019-05-07T03:30:35.421Z,6.28
2019-05-07T03:31:36.343Z,6.28
2019-05-07T03:32:36.496Z,6.30
2019-05-07T03:33:36.095Z,6.30
2019-05-07T03:34:36.489Z,6.34
2019-05-07T03:35:36.389Z,6.22
2019-05-07T03:36:35.454Z,6.27
2019-05-07T03:37:35.744Z,6.27
2019-05-07T03:38:33.505Z,6.15
2019-05-07T03:39:33.613Z,6.18
2019-05-07T03:40:32.888Z,6.15
2019-05-07T03:41:33.226Z,6.25
2019-05-07T03:42:33.219Z,6.31
2019-05-07T03:43:32.576Z,6.17
2019-05-07T03:44:33.604Z,6.22
2019-05-07T03:45:33.311Z,6.17
2019-05-07T03:46:30.275Z,6.27
2019-05-07T03:47:33.142Z,6.27
2019-05-07T03:48:33.014Z,6.12
2019-05-07T03:49:33.822Z,6.25
2019-05-07T03:50:30.230Z,6.11
2019-05-07T03:51:32.792Z,6.19
2019-05-07T03:52:33.208Z,6.12
2019-05-07T03:53:30.195Z,6.12
2019-05-07T03:54:33.730Z,6.04
2019-05-07T03:55:33.013Z,6.08
2019-05-07T03:56:32.898Z,6.03
2019-05-07T03:57:33.043Z,6.00
2019-05-07T03:58:30.171Z,6.11
2019-05-07T03:59:30.128Z,6.06
2019-05-07T04:00:33.060Z,6.04
2019-05-07T04:01:33.269Z,6.09
2019-05-07T04:02:32.935Z,6.04
2019-05-07T04:03:33.664Z,6.01
2019-05-07T04:04:33.005Z,6.06
2019-05-07T04:05:30.060Z,6.00
2019-05-07T04:06:33.057Z,6.03
2019-05-07T04:07:30.040Z,5.96
2019-05-07T04:08:33.093Z,5.94
2019-05-07T04:09:33.018Z,5.94
2019-05-07T04:10:30.004Z,5.91
2019-05-07T04:11:30.015Z,5.93
2019-05-07T04:12:29.984Z,5.90
2019-05-07T04:13:32.975Z,5.90
2019-05-07T04:14:29.960Z,5.86
2019-05-07T04:15:32.804Z,5.93
2019-05-07T04:16:29.949Z,5.83
2019-05-07T04:17:29.924Z,5.82
2019-05-07T04:18:32.669Z,5.85
2019-05-07T04:19:32.643Z,5.85
2019-05-07T04:20:29.892Z,5.85
2019-05-07T04:21:29.913Z,5.85
2019-05-07T04:22:29.875Z,5.85
2019-05-07T04:23:29.857Z,5.81
2019-05-07T04:24:29.869Z,5.76
2019-05-07T04:25:29.836Z,5.79
2019-05-07T04:26:29.826Z,5.81
2019-05-07T04:27:33.032Z,5.79
2019-05-07T04:28:33.035Z,5.79
2019-05-07T04:29:29.790Z,5.93
2019-05-07T04:30:32.859Z,5.81
2019-05-07T04:31:29.766Z,5.90
2019-05-07T04:32:29.757Z,5.81
2019-05-07T04:33:33.067Z,5.76
2019-05-07T04:34:29.755Z,5.81
2019-05-07T04:35:29.720Z,5.67
2019-05-07T04:36:29.710Z,5.74
2019-05-07T04:37:29.703Z,5.74
2019-05-07T04:38:29.688Z,5.75
2019-05-07T04:39:29.698Z,5.72
2019-05-07T04:40:29.665Z,5.71
2019-05-07T04:41:32.641Z,5.72
2019-05-07T04:42:29.643Z,5.72
2019-05-07T04:43:29.634Z,5.72
2019-05-07T04:44:33.020Z,5.68
2019-05-07T04:45:29.643Z,5.64
2019-05-07T04:46:29.601Z,5.65
2019-05-07T04:47:38.424Z,5.65
2019-05-07T04:48:30.578Z,5.54
2019-05-07T04:49:29.566Z,5.63
2019-05-07T04:50:41.471Z,5.56
2019-05-07T04:51:33.401Z,5.56
2019-05-07T04:52:29.532Z,5.61
2019-05-07T04:53:32.627Z,5.60
2019-05-07T04:54:29.509Z,5.61
2019-05-07T04:55:29.497Z,5.67
2019-05-07T04:56:29.510Z,5.65
2019-05-07T04:57:29.474Z,5.64
2019-05-07T04:58:29.466Z,5.68
2019-05-07T04:59:29.453Z,5.67
2019-05-07T05:00:29.442Z,5.76
2019-05-07T05:01:29.455Z,5.74
2019-05-07T05:02:32.361Z,5.68
2019-05-07T05:03:29.406Z,5.74
2019-05-07T05:04:31.531Z,5.76
2019-05-07T05:05:32.907Z,5.79
2019-05-07T05:06:29.399Z,5.85
2019-05-07T05:07:29.364Z,5.93
2019-05-07T05:08:29.351Z,5.91
2019-05-07T05:09:29.372Z,5.91
2019-05-07T05:10:29.348Z,5.90
2019-05-07T05:11:29.316Z,5.99
2019-05-07T05:12:29.307Z,6.08
2019-05-07T05:13:29.296Z,6.19
2019-05-07T05:14:29.314Z,6.25
2019-05-07T05:15:29.277Z,6.43
2019-05-07T05:16:29.281Z,6.48
2019-05-07T05:17:29.249Z,6.52
2019-05-07T05:18:29.236Z,6.61
2019-05-07T05:19:29.268Z,6.79
2019-05-07T05:20:29.214Z,6.80
2019-05-07T05:21:29.203Z,6.92
2019-05-07T05:22:29.194Z,6.99
2019-05-07T05:23:29.181Z,7.24
2019-05-07T05:24:29.191Z,7.68
2019-05-07T05:25:29.186Z,8.05
2019-05-07T05:26:29.148Z,7.67
2019-05-07T05:27:30.625Z,7.55
2019-05-07T05:28:29.125Z,7.40
2019-05-07T05:29:29.113Z,7.37
2019-05-07T05:30:29.102Z,7.46
2019-05-07T05:31:29.092Z,7.50
2019-05-07T05:32:29.102Z,7.60
2019-05-07T05:33:29.068Z,7.61
2019-05-07T05:34:29.083Z,7.64
2019-05-07T05:35:29.047Z,7.72
2019-05-07T05:36:29.050Z,7.86
2019-05-07T05:37:29.023Z,8.19
2019-05-07T05:38:29.016Z,8.47
2019-05-07T05:39:29.003Z,8.53
2019-05-07T05:40:28.994Z,8.44
2019-05-07T05:41:29.002Z,8.34
2019-05-07T05:42:28.968Z,8.02
2019-05-07T05:43:28.960Z,7.92
2019-05-07T05:44:28.950Z,7.71
2019-05-07T05:45:28.974Z,7.67
2019-05-07T05:46:28.922Z,7.63
2019-05-07T05:47:28.926Z,7.55
2019-05-07T05:48:28.921Z,7.46
2019-05-07T05:49:28.998Z,7.57
2019-05-07T05:50:28.878Z,7.46
2019-05-07T05:51:28.905Z,7.35
2019-05-07T05:52:28.854Z,7.35
2019-05-07T05:53:28.843Z,7.35
2019-05-07T05:54:28.837Z,7.39
2019-05-07T05:55:28.843Z,7.43
2019-05-07T05:56:28.834Z,7.48
2019-05-07T05:57:28.802Z,7.43
2019-05-07T05:58:28.787Z,7.39
2019-05-07T05:59:45.025Z,7.28
2019-05-07T06:00:29.765Z,7.32
2019-05-07T06:01:28.779Z,7.25
2019-05-07T06:02:28.744Z,7.49
2019-05-07T06:03:28.731Z,7.75
2019-05-07T06:04:28.747Z,7.87
2019-05-07T06:05:28.713Z,7.89
2019-05-07T06:06:28.697Z,8.12
2019-05-07T06:07:28.685Z,8.15
2019-05-07T06:08:28.678Z,8.20
2019-05-07T06:09:28.690Z,8.30
2019-05-07T06:10:28.655Z,8.68
2019-05-07T06:11:28.642Z,8.65
2019-05-07T06:12:28.634Z,8.61
2019-05-07T06:13:28.625Z,8.56
2019-05-07T06:14:28.630Z,8.45
2019-05-07T06:15:28.601Z,8.47
2019-05-07T06:16:28.587Z,8.56
2019-05-07T06:17:28.602Z,8.71
2019-05-07T06:18:28.565Z,8.94
2019-05-07T06:19:28.579Z,9.31
2019-05-07T06:20:28.567Z,9.53
2019-05-07T06:21:28.529Z,9.74
2019-05-07T06:22:28.520Z,9.53
2019-05-07T06:23:28.508Z,9.72
2019-05-07T06:24:28.500Z,9.97
2019-05-07T06:25:28.515Z,9.99
2019-05-07T06:26:28.474Z,10.22
2019-05-07T06:27:28.466Z,10.38
2019-05-07T06:28:28.450Z,10.40
2019-05-07T06:29:28.437Z,10.33
2019-05-07T06:30:28.465Z,10.36
2019-05-07T06:31:28.418Z,10.45
2019-05-07T06:32:28.408Z,10.52
2019-05-07T06:33:28.396Z,10.85
2019-05-07T06:34:28.385Z,10.99
2019-05-07T06:35:28.396Z,11.14
2019-05-07T06:36:28.363Z,11.02
2019-05-07T06:37:28.352Z,11.10
2019-05-07T06:38:28.363Z,11.18
2019-05-07T06:39:28.331Z,11.18
2019-05-07T06:40:29.455Z,11.07
2019-05-07T06:41:28.327Z,11.19
2019-05-07T06:42:28.297Z,11.28
2019-05-07T06:43:28.282Z,11.46
2019-05-07T06:44:28.270Z,11.60
2019-05-07T06:45:28.258Z,11.83
2019-05-07T06:46:28.342Z,11.70
2019-05-07T06:47:28.238Z,11.90
2019-05-07T06:48:41.402Z,11.98
2019-05-07T06:49:29.230Z,11.83
2019-05-07T06:50:28.201Z,11.79
2019-05-07T06:51:28.201Z,11.52
2019-05-07T06:52:28.201Z,11.40
2019-05-07T06:53:28.168Z,11.61
2019-05-07T06:54:28.172Z,11.82
2019-05-07T06:55:28.168Z,12.10
2019-05-07T06:56:28.135Z,12.19
2019-05-07T06:57:28.125Z,12.24
2019-05-07T06:58:28.141Z,12.23
2019-05-07T06:59:28.107Z,12.52
2019-05-07T07:00:28.091Z,12.67
2019-05-07T07:01:28.079Z,12.74
2019-05-07T07:02:28.070Z,12.67
2019-05-07T07:03:28.085Z,12.54
2019-05-07T07:04:28.046Z,12.42
2019-05-07T07:05:28.037Z,11.86
2019-05-07T07:06:28.052Z,11.44
2019-05-07T07:07:33.867Z,11.24
2019-05-07T07:08:28.997Z,11.51
2019-05-07T07:09:27.992Z,11.52
2019-05-07T07:10:27.977Z,11.44
2019-05-07T07:11:28.012Z,11.43
2019-05-07T07:12:27.955Z,11.49
2019-05-07T07:13:27.941Z,11.42
2019-05-07T07:14:27.930Z,11.55
2019-05-07T07:15:27.920Z,11.72
2019-05-07T07:16:27.941Z,11.60
2019-05-07T07:17:27.896Z,11.00
2019-05-07T07:18:27.884Z,11.10
2019-05-07T07:19:27.874Z,11.37
2019-05-07T07:20:27.863Z,11.25
2019-05-07T07:21:27.882Z,11.62
2019-05-07T07:22:27.867Z,11.75
2019-05-07T07:23:27.830Z,11.73
2019-05-07T07:24:27.818Z,11.55
2019-05-07T07:25:27.806Z,11.54
2019-05-07T07:26:27.794Z,11.94
2019-05-07T07:27:27.816Z,11.99
2019-05-07T07:28:27.772Z,12.13
2019-05-07T07:29:27.763Z,12.09
2019-05-07T07:30:27.750Z,12.01
2019-05-07T07:31:27.736Z,11.85
2019-05-07T07:32:27.743Z,12.12
2019-05-07T07:33:27.740Z,12.23
2019-05-07T07:34:27.716Z,12.12
2019-05-07T07:35:27.694Z,11.95
2019-05-07T07:36:27.683Z,11.58
2019-05-07T07:37:27.670Z,11.42
2019-05-07T07:38:27.682Z,11.42
2019-05-07T07:39:27.654Z,11.19
2019-05-07T07:40:27.635Z,11.36
2019-05-07T07:41:27.627Z,11.15
2019-05-07T07:42:27.636Z,11.04
2019-05-07T07:43:27.601Z,11.10
2019-05-07T07:44:27.595Z,11.29
2019-05-07T07:51:36.760Z,13.64
2019-05-07T07:54:09.388Z,13.82
2019-05-07T07:54:33.130Z,13.64
2019-05-07T07:55:33.158Z,13.73
2019-05-07T07:56:47.851Z,13.85
2019-05-07T07:57:34.117Z,13.23
2019-05-07T07:58:34.292Z,13.01
2019-05-07T07:59:33.071Z,13.01
2019-05-07T08:00:33.075Z,13.11
2019-05-07T08:01:33.065Z,13.45
2019-05-07T08:02:33.032Z,13.82
2019-05-07T08:03:33.082Z,14.10
2019-05-07T08:04:33.011Z,14.14
2019-05-07T08:05:33.002Z,13.91
2019-05-07T08:06:33.004Z,13.77
2019-05-07T08:07:33.170Z,13.44
2019-05-07T08:08:32.966Z,13.15
2019-05-07T08:09:32.959Z,12.72
2019-05-07T08:10:32.970Z,12.45
2019-05-07T08:11:32.932Z,12.13
2019-05-07T08:12:32.922Z,12.19
2019-05-07T08:13:32.908Z,12.17
2019-05-07T08:14:32.904Z,12.32
2019-05-07T08:15:33.194Z,12.53
2019-05-07T08:16:32.935Z,12.28
2019-05-07T08:17:32.871Z,12.53
2019-05-07T08:18:32.951Z,12.57
2019-05-07T08:19:33.096Z,12.85
2019-05-07T08:20:32.858Z,13.29
2019-05-07T08:21:33.257Z,13.82
2019-05-07T08:22:33.070Z,13.92
2019-05-07T08:23:32.822Z,13.59
2019-05-07T08:24:32.789Z,13.54
2019-05-07T08:25:32.775Z,13.42
2019-05-07T08:26:32.766Z,13.46
2019-05-07T08:27:32.793Z,13.26
2019-05-07T08:28:32.761Z,13.11
2019-05-07T08:29:32.848Z,13.14
2019-05-07T08:30:32.764Z,13.32
2019-05-07T08:31:32.709Z,13.57
2019-05-07T08:32:32.777Z,13.51
2019-05-07T08:33:32.707Z,13.70
2019-05-07T08:34:32.698Z,14.09
2019-05-07T08:35:32.775Z,14.51
2019-05-07T08:36:33.203Z,14.70
2019-05-07T08:37:32.640Z,14.28
2019-05-07T08:38:32.774Z,14.32
2019-05-07T08:39:32.796Z,14.22
2019-05-07T08:40:32.716Z,14.18
2019-05-07T08:41:32.593Z,14.40
2019-05-07T08:42:32.583Z,14.42
2019-05-07T08:43:32.586Z,14.21
2019-05-07T08:44:32.613Z,13.88
2019-05-07T08:45:32.760Z,13.75
2019-05-07T08:46:32.894Z,13.29
2019-05-07T08:47:32.528Z,12.92
2019-05-07T08:48:32.517Z,12.68
2019-05-07T08:49:39.329Z,12.46
2019-05-07T08:50:33.516Z,12.16
2019-05-07T08:51:32.731Z,11.83
2019-05-07T08:52:32.764Z,11.85
2019-05-07T08:53:32.881Z,11.83
2019-05-07T08:54:32.488Z,11.88
2019-05-07T08:55:32.461Z,12.12
2019-05-07T08:56:32.425Z,12.10
2019-05-07T08:57:32.417Z,12.10
2019-05-07T08:58:32.416Z,12.23
2019-05-07T08:59:32.391Z,12.31
2019-05-07T09:00:32.689Z,12.24
2019-05-07T09:01:32.590Z,12.09
2019-05-07T09:02:32.694Z,12.07
2019-05-07T09:03:32.438Z,12.04
2019-05-07T09:04:32.836Z,11.96
2019-05-07T09:05:32.492Z,11.88
2019-05-07T09:06:32.338Z,11.82
2019-05-07T09:07:32.365Z,11.82
2019-05-07T09:08:32.289Z,11.73
2019-05-07T09:09:32.753Z,11.55
2019-05-07T09:10:32.593Z,11.40
2019-05-07T09:11:32.293Z,11.24
2019-05-07T09:12:32.246Z,11.18
2019-05-07T09:13:33.325Z,11.02
2019-05-07T09:14:32.363Z,10.78
2019-05-07T09:15:32.256Z,10.91
2019-05-07T09:16:32.222Z,11.09
2019-05-07T09:17:32.211Z,11.14
2019-05-07T09:18:32.322Z,11.22
2019-05-07T09:19:32.350Z,11.24
2019-05-07T09:20:32.336Z,11.40
2019-05-07T09:21:32.284Z,11.28
2019-05-07T09:22:32.475Z,11.11
2019-05-07T09:23:32.120Z,11.19
2019-05-07T09:24:33.221Z,11.28
2019-05-07T09:25:32.539Z,11.22
2019-05-07T09:26:32.385Z,11.29
2019-05-07T09:27:32.705Z,11.49
2019-05-07T09:28:32.660Z,11.73
2019-05-07T09:29:32.425Z,11.86
2019-05-07T09:30:32.647Z,11.95
2019-05-07T09:31:32.266Z,12.01
2019-05-07T09:32:32.678Z,12.13
2019-05-07T09:33:32.155Z,12.10
2019-05-07T09:34:32.679Z,12.16
2019-05-07T09:35:32.163Z,12.23
2019-05-07T09:36:32.290Z,12.28
2019-05-07T09:37:32.621Z,12.37
2019-05-07T09:38:32.740Z,12.41
2019-05-07T09:39:32.455Z,12.42
2019-05-07T09:40:32.128Z,12.29
2019-05-07T09:41:32.709Z,12.09
2019-05-07T09:42:33.266Z,12.21
2019-05-07T09:43:32.484Z,12.29
2019-05-07T09:44:32.518Z,12.49
2019-05-07T09:45:32.846Z,12.64
2019-05-07T09:46:32.580Z,12.64
2019-05-07T09:47:32.581Z,12.56
2019-05-07T09:48:33.850Z,12.59
2019-05-07T09:49:32.672Z,12.68
2019-05-07T09:50:32.517Z,12.68
2019-05-07T09:51:32.287Z,12.59
2019-05-07T09:52:32.254Z,12.71
2019-05-07T09:53:32.134Z,12.70
2019-05-07T09:54:32.300Z,12.78
2019-05-07T09:55:32.534Z,12.78
2019-05-07T09:56:32.037Z,12.85
2019-05-07T09:57:34.529Z,13.07
2019-05-07T09:58:36.481Z,13.11
2019-05-07T09:59:32.715Z,13.39
2019-05-07T10:00:32.106Z,13.29
2019-05-07T10:01:32.078Z,13.20
2019-05-07T10:02:32.159Z,13.11
2019-05-07T10:03:32.423Z,13.04
2019-05-07T10:04:32.724Z,12.96
2019-05-07T10:05:32.094Z,13.01
2019-05-07T10:06:32.167Z,13.38
2019-05-07T10:07:32.522Z,13.85
2019-05-07T10:08:31.865Z,14.42
2019-05-07T10:09:32.746Z,14.78
2019-05-07T10:10:32.889Z,14.61
2019-05-07T10:11:32.922Z,14.40
2019-05-07T10:12:32.953Z,14.60
2019-05-07T10:13:32.987Z,14.78
2019-05-07T10:14:33.072Z,15.11
2019-05-07T10:15:33.140Z,15.34
2019-05-07T10:16:31.521Z,15.53
2019-05-07T10:17:32.742Z,15.49
2019-05-07T10:18:32.072Z,15.29
2019-05-07T10:19:32.521Z,15.19
2019-05-07T10:20:32.745Z,15.17
2019-05-07T10:21:31.468Z,15.20
2019-05-07T10:22:32.121Z,15.14
2019-05-07T10:23:31.448Z,15.34
2019-05-07T10:24:31.433Z,15.47
2019-05-07T10:25:32.776Z,15.54
2019-05-07T10:26:32.179Z,15.80
2019-05-07T10:27:32.508Z,16.02
2019-05-07T10:28:32.123Z,16.08
2019-05-07T10:29:32.291Z,15.97
2019-05-07T10:30:32.157Z,15.69
2019-05-07T10:31:32.014Z,15.76
2019-05-07T10:32:32.245Z,15.87
2019-05-07T10:33:31.943Z,15.71
2019-05-07T10:34:31.319Z,15.46
2019-05-07T10:35:33.682Z,15.36
2019-05-07T10:36:32.045Z,15.31
2019-05-07T10:37:31.827Z,15.34
2019-05-07T10:38:31.279Z,15.23
2019-05-07T10:39:32.519Z,15.21
2019-05-07T10:40:32.748Z,15.28
2019-05-07T10:41:31.848Z,14.73
2019-05-07T10:42:32.291Z,14.72
2019-05-07T10:43:32.751Z,14.69
2019-05-07T10:44:32.121Z,14.28
2019-05-07T10:45:32.316Z,14.20
2019-05-07T10:46:31.966Z,14.37
2019-05-07T10:47:31.282Z,14.22
2019-05-07T10:48:32.011Z,14.39
2019-05-07T10:49:31.801Z,14.25
2019-05-07T10:50:38.670Z,14.35
2019-05-07T10:51:32.317Z,14.22
2019-05-07T10:52:31.908Z,14.15
2019-05-07T10:53:32.076Z,14.17
2019-05-07T10:54:31.097Z,14.14
2019-05-07T10:55:32.800Z,14.02
2019-05-07T10:56:32.614Z,14.00
2019-05-07T10:57:32.785Z,14.02
2019-05-07T10:58:32.050Z,13.82
2019-05-07T10:59:31.040Z,13.85
2019-05-07T11:00:32.937Z,13.75
2019-05-07T11:01:32.754Z,13.62
2019-05-07T11:02:32.489Z,13.59
2019-05-07T11:03:32.418Z,13.60
2019-05-07T11:04:40.334Z,13.63
2019-05-07T11:05:32.654Z,13.55
2019-05-07T11:06:32.348Z,13.51
2019-05-07T11:07:32.792Z,13.59
2019-05-07T11:08:32.926Z,13.54
2019-05-07T11:09:32.691Z,13.62
2019-05-07T11:10:32.673Z,13.59
2019-05-07T11:11:31.896Z,13.82
2019-05-07T11:12:31.937Z,14.12
2019-05-07T11:13:30.926Z,14.33
2019-05-07T11:14:32.152Z,14.61
2019-05-07T11:15:32.706Z,15.16
2019-05-07T11:16:32.439Z,15.36
2019-05-07T11:17:32.658Z,15.56
2019-05-07T11:18:32.278Z,15.68
2019-05-07T11:19:32.426Z,15.36
2019-05-07T11:20:32.050Z,15.56
2019-05-07T11:21:32.956Z,15.75
2019-05-07T11:22:32.766Z,16.24
2019-05-07T11:23:32.680Z,16.38
2019-05-07T11:24:32.079Z,16.45
2019-05-07T11:25:30.749Z,16.39
2019-05-07T11:26:32.819Z,16.49
2019-05-07T11:27:32.841Z,16.66
2019-05-07T11:28:32.315Z,16.43
2019-05-07T11:29:33.064Z,16.43
2019-05-07T11:30:32.087Z,16.67
2019-05-07T11:31:32.506Z,16.39
2019-05-07T11:32:32.122Z,15.75
2019-05-07T11:33:32.546Z,15.43
2019-05-07T11:34:32.624Z,15.20
2019-05-07T11:35:31.876Z,15.07
2019-05-07T11:36:31.989Z,15.03
2019-05-07T11:37:30.613Z,15.17
2019-05-07T11:38:33.140Z,15.14
2019-05-07T11:39:30.610Z,15.09
2019-05-07T11:40:32.078Z,15.06
2019-05-07T11:41:32.081Z,14.81
2019-05-07T11:42:30.579Z,14.72
2019-05-07T11:43:32.502Z,14.47
2019-05-07T11:44:32.057Z,14.40
2019-05-07T11:45:32.140Z,14.21
2019-05-07T11:46:32.572Z,14.04
2019-05-07T11:47:31.940Z,14.22
2019-05-07T11:48:32.548Z,13.99
2019-05-07T11:49:32.639Z,13.73
2019-05-07T11:50:32.842Z,14.09
2019-05-07T11:51:30.453Z,13.82
2019-05-07T11:52:35.201Z,13.73
2019-05-07T11:53:32.737Z,13.71
2019-05-07T11:54:31.801Z,13.77
2019-05-07T11:55:30.409Z,13.71
2019-05-07T11:56:32.621Z,13.52
2019-05-07T11:57:30.386Z,13.51
2019-05-07T11:58:32.318Z,13.38
2019-05-07T11:59:32.482Z,12.89
2019-05-07T12:00:32.263Z,12.79
2019-05-07T12:01:43.115Z,12.68
2019-05-07T12:02:32.036Z,12.78
2019-05-07T12:03:32.337Z,12.87
2019-05-07T12:04:32.037Z,12.90
2019-05-07T12:05:30.317Z,13.22
2019-05-07T12:06:32.210Z,13.32
2019-05-07T12:07:30.273Z,13.48
2019-05-07T12:08:39.303Z,13.51
2019-05-07T12:09:33.340Z,13.59
2019-05-07T12:10:30.244Z,13.63
2019-05-07T12:11:32.085Z,13.32
2019-05-07T12:12:32.462Z,13.14
2019-05-07T12:13:32.105Z,13.44
2019-05-07T12:14:32.558Z,13.63
2019-05-07T12:15:32.255Z,13.88
2019-05-07T12:16:32.041Z,13.99
2019-05-07T12:17:31.648Z,14.17
2019-05-07T12:18:32.004Z,14.35
2019-05-07T12:19:30.163Z,14.42
2019-05-07T12:20:32.252Z,14.40
2019-05-07T12:21:30.114Z,14.32
2019-05-07T12:22:30.103Z,14.39
2019-05-07T12:23:30.093Z,14.54
2019-05-07T12:24:30.079Z,14.88
2019-05-07T12:25:32.049Z,15.25
2019-05-07T12:26:30.059Z,15.41
2019-05-07T12:27:32.203Z,15.23
2019-05-07T12:28:30.036Z,15.10
2019-05-07T12:29:32.101Z,15.19
2019-05-07T12:30:30.034Z,15.27
2019-05-07T12:31:30.001Z,15.43
2019-05-07T12:32:32.253Z,15.38
2019-05-07T12:33:29.992Z,15.32
2019-05-07T12:34:31.822Z,15.19
2019-05-07T12:35:29.957Z,14.96
2019-05-07T12:36:31.882Z,14.91
2019-05-07T12:37:31.903Z,14.72
2019-05-07T12:38:29.923Z,14.60
2019-05-07T12:39:31.700Z,14.51
2019-05-07T12:40:29.898Z,14.77
2019-05-07T12:41:29.904Z,14.94
2019-05-07T12:42:29.899Z,14.91
2019-05-07T12:43:31.782Z,15.10
2019-05-07T12:44:31.862Z,15.17
2019-05-07T12:45:29.843Z,15.25
2019-05-07T12:46:29.855Z,15.38
2019-05-07T12:47:29.819Z,15.68
2019-05-07T12:48:29.832Z,15.72
2019-05-07T12:49:29.819Z,15.71
2019-05-07T12:50:29.788Z,15.74
2019-05-07T12:51:34.492Z,15.72
2019-05-07T12:52:32.011Z,15.75
2019-05-07T12:53:31.450Z,15.68
2019-05-07T12:54:29.768Z,15.32
2019-05-07T12:55:29.732Z,15.11
2019-05-07T12:56:31.917Z,15.25
2019-05-07T12:57:29.731Z,15.17
2019-05-07T12:58:29.698Z,14.78
2019-05-07T12:59:29.685Z,14.94
2019-05-07T13:00:29.698Z,15.02
2019-05-07T13:01:29.663Z,15.21
2019-05-07T13:02:38.076Z,15.47
2019-05-07T13:03:32.297Z,15.43
2019-05-07T13:04:29.630Z,15.57
2019-05-07T13:05:29.621Z,15.59
2019-05-07T13:06:29.615Z,15.62
2019-05-07T13:07:29.622Z,15.67
2019-05-07T13:08:29.585Z,15.65
2019-05-07T13:09:29.593Z,15.67
2019-05-07T13:10:29.561Z,15.78
2019-05-07T13:11:29.551Z,15.75
2019-05-07T13:12:29.543Z,15.86
2019-05-07T13:13:31.847Z,15.80
2019-05-07T13:14:29.517Z,16.01